sensor_id;sensor_type;location;lat;lon;timestamp;P1;durP1;ratioP1;P2;durP2;ratioP2
15567;SDS011;7885;42.596;23.044;2023-05-10T00:02:25;1.60;;;1.50;;
15567;SDS011;7885;42.596;23.044;2023-05-10T00:04:52;1.80;;;1.70;;
15567;SDS011;7885;42.596;23.044;2023-05-10T00:07:18;1.73;;;1.63;;
15567;SDS011;7885;42.596;23.044;2023-05-10T00:09:45;1.67;;;1.50;;
15567;SDS011;7885;42.596;23.044;2023-05-10T00:12:12;1.90;;;1.70;;
15567;SDS011;7885;42.596;23.044;2023-05-10T00:14:39;1.70;;;1.60;;
15567;SDS011;7885;42.596;23.044;2023-05-10T00:17:05;1.90;;;1.80;;
15567;SDS011;7885;42.596;23.044;2023-05-10T00:19:33;2.13;;;2.03;;
15567;SDS011;7885;42.596;23.044;2023-05-10T00:22:00;2.30;;;2.10;;
15567;SDS011;7885;42.596;23.044;2023-05-10T00:24:27;2.10;;;2.00;;
15567;SDS011;7885;42.596;23.044;2023-05-10T00:26:54;3.30;;;2.30;;
15567;SDS011;7885;42.596;23.044;2023-05-10T00:29:20;2.77;;;2.03;;
15567;SDS011;7885;42.596;23.044;2023-05-10T00:31:47;2.03;;;1.80;;
15567;SDS011;7885;42.596;23.044;2023-05-10T00:34:14;3.67;;;2.60;;
15567;SDS011;7885;42.596;23.044;2023-05-10T00:36:42;2.07;;;1.93;;
15567;SDS011;7885;42.596;23.044;2023-05-10T00:39:08;2.30;;;2.10;;
15567;SDS011;7885;42.596;23.044;2023-05-10T00:41:35;1.90;;;1.80;;
15567;SDS011;7885;42.596;23.044;2023-05-10T00:44:02;2.47;;;2.20;;
15567;SDS011;7885;42.596;23.044;2023-05-10T00:46:29;2.40;;;2.20;;
15567;SDS011;7885;42.596;23.044;2023-05-10T00:48:56;2.80;;;2.50;;
15567;SDS011;7885;42.596;23.044;2023-05-10T00:51:23;3.30;;;3.00;;
15567;SDS011;7885;42.596;23.044;2023-05-10T00:53:51;2.97;;;2.67;;
15567;SDS011;7885;42.596;23.044;2023-05-10T00:56:18;2.90;;;2.30;;
15567;SDS011;7885;42.596;23.044;2023-05-10T00:58:48;3.70;;;3.27;;
15567;SDS011;7885;42.596;23.044;2023-05-10T01:01:15;4.10;;;3.70;;
15567;SDS011;7885;42.596;23.044;2023-05-10T01:03:41;2.50;;;2.30;;
15567;SDS011;7885;42.596;23.044;2023-05-10T01:06:08;2.20;;;2.00;;
15567;SDS011;7885;42.596;23.044;2023-05-10T01:08:36;2.13;;;1.93;;
15567;SDS011;7885;42.596;23.044;2023-05-10T01:11:04;2.30;;;2.10;;
15567;SDS011;7885;42.596;23.044;2023-05-10T01:13:32;1.97;;;1.87;;
15567;SDS011;7885;42.596;23.044;2023-05-10T01:16:02;1.90;;;1.80;;
15567;SDS011;7885;42.596;23.044;2023-05-10T01:18:30;2.43;;;2.20;;
15567;SDS011;7885;42.596;23.044;2023-05-10T01:21:02;1.87;;;1.73;;
15567;SDS011;7885;42.596;23.044;2023-05-10T01:23:45;4.07;;;2.07;;
15567;SDS011;7885;42.596;23.044;2023-05-10T01:29:56;2.20;;;2.00;;
15567;SDS011;7885;42.596;23.044;2023-05-10T01:32:36;2.57;;;2.07;;
15567;SDS011;7885;42.596;23.044;2023-05-10T01:35:10;2.33;;;2.13;;
15567;SDS011;7885;42.596;23.044;2023-05-10T01:37:46;2.00;;;1.90;;
15567;SDS011;7885;42.596;23.044;2023-05-10T01:40:19;1.90;;;1.80;;
15567;SDS011;7885;42.596;23.044;2023-05-10T01:42:53;1.93;;;1.83;;
15567;SDS011;7885;42.596;23.044;2023-05-10T01:45:27;1.70;;;1.60;;
15567;SDS011;7885;42.596;23.044;2023-05-10T01:48:03;1.90;;;1.70;;
15567;SDS011;7885;42.596;23.044;2023-05-10T01:50:32;1.90;;;1.80;;
15567;SDS011;7885;42.596;23.044;2023-05-10T01:53:01;1.90;;;1.80;;
15567;SDS011;7885;42.596;23.044;2023-05-10T01:55:32;2.17;;;2.07;;
15567;SDS011;7885;42.596;23.044;2023-05-10T01:58:05;2.20;;;2.00;;
15567;SDS011;7885;42.596;23.044;2023-05-10T02:00:34;3.27;;;1.97;;
15567;SDS011;7885;42.596;23.044;2023-05-10T02:03:03;2.43;;;2.23;;
15567;SDS011;7885;42.596;23.044;2023-05-10T02:05:32;2.93;;;2.20;;
15567;SDS011;7885;42.596;23.044;2023-05-10T02:08:01;2.40;;;2.20;;
15567;SDS011;7885;42.596;23.044;2023-05-10T02:10:31;2.70;;;2.50;;
15567;SDS011;7885;42.596;23.044;2023-05-10T02:12:58;4.50;;;2.70;;
15567;SDS011;7885;42.596;23.044;2023-05-10T02:15:27;3.47;;;2.80;;
15567;SDS011;7885;42.596;23.044;2023-05-10T02:17:56;3.23;;;2.93;;
15567;SDS011;7885;42.596;23.044;2023-05-10T02:20:26;4.37;;;3.97;;
15567;SDS011;7885;42.596;23.044;2023-05-10T02:22:54;4.23;;;3.93;;
15567;SDS011;7885;42.596;23.044;2023-05-10T02:25:22;5.27;;;4.87;;
15567;SDS011;7885;42.596;23.044;2023-05-10T02:27:50;7.30;;;6.57;;
15567;SDS011;7885;42.596;23.044;2023-05-10T02:30:20;7.60;;;6.83;;
15567;SDS011;7885;42.596;23.044;2023-05-10T02:32:48;6.67;;;6.07;;
15567;SDS011;7885;42.596;23.044;2023-05-10T02:35:16;5.40;;;4.90;;
15567;SDS011;7885;42.596;23.044;2023-05-10T02:37:45;5.30;;;4.80;;
15567;SDS011;7885;42.596;23.044;2023-05-10T02:40:13;4.40;;;4.00;;
15567;SDS011;7885;42.596;23.044;2023-05-10T02:42:44;4.60;;;4.20;;
15567;SDS011;7885;42.596;23.044;2023-05-10T02:45:12;4.60;;;4.03;;
15567;SDS011;7885;42.596;23.044;2023-05-10T02:47:40;4.20;;;3.90;;
15567;SDS011;7885;42.596;23.044;2023-05-10T02:50:07;4.13;;;3.80;;
15567;SDS011;7885;42.596;23.044;2023-05-10T02:52:37;4.83;;;4.43;;
15567;SDS011;7885;42.596;23.044;2023-05-10T02:55:08;4.30;;;4.00;;
15567;SDS011;7885;42.596;23.044;2023-05-10T02:57:38;4.70;;;4.30;;
15567;SDS011;7885;42.596;23.044;2023-05-10T03:00:09;4.50;;;4.20;;
15567;SDS011;7885;42.596;23.044;2023-05-10T03:02:37;5.20;;;4.80;;
15567;SDS011;7885;42.596;23.044;2023-05-10T03:05:04;4.57;;;4.13;;
15567;SDS011;7885;42.596;23.044;2023-05-10T03:07:31;4.80;;;4.30;;
15567;SDS011;7885;42.596;23.044;2023-05-10T03:09:59;5.13;;;4.73;;
15567;SDS011;7885;42.596;23.044;2023-05-10T03:15:34;4.80;;;4.40;;
15567;SDS011;7885;42.596;23.044;2023-05-10T03:18:10;5.10;;;4.70;;
15567;SDS011;7885;42.596;23.044;2023-05-10T03:20:41;5.57;;;5.07;;
15567;SDS011;7885;42.596;23.044;2023-05-10T03:23:11;5.40;;;4.90;;
15567;SDS011;7885;42.596;23.044;2023-05-10T03:25:40;5.43;;;5.03;;
15567;SDS011;7885;42.596;23.044;2023-05-10T03:28:11;5.80;;;5.30;;
15567;SDS011;7885;42.596;23.044;2023-05-10T03:30:38;6.23;;;4.67;;
15567;SDS011;7885;42.596;23.044;2023-05-10T03:33:06;5.83;;;5.23;;
15567;SDS011;7885;42.596;23.044;2023-05-10T03:35:33;5.83;;;5.30;;
15567;SDS011;7885;42.596;23.044;2023-05-10T03:38:00;5.83;;;5.33;;
15567;SDS011;7885;42.596;23.044;2023-05-10T03:40:27;6.13;;;5.53;;
15567;SDS011;7885;42.596;23.044;2023-05-10T03:42:56;4.80;;;4.40;;
15567;SDS011;7885;42.596;23.044;2023-05-10T03:45:24;5.83;;;5.33;;
15567;SDS011;7885;42.596;23.044;2023-05-10T03:47:51;5.40;;;4.90;;
15567;SDS011;7885;42.596;23.044;2023-05-10T03:53:40;5.47;;;5.07;;
15567;SDS011;7885;42.596;23.044;2023-05-10T03:56:06;6.17;;;5.57;;
15567;SDS011;7885;42.596;23.044;2023-05-10T03:58:33;6.03;;;5.60;;
15567;SDS011;7885;42.596;23.044;2023-05-10T04:01:01;5.90;;;5.40;;
15567;SDS011;7885;42.596;23.044;2023-05-10T04:03:28;6.50;;;5.90;;
15567;SDS011;7885;42.596;23.044;2023-05-10T04:05:58;6.13;;;5.63;;
15567;SDS011;7885;42.596;23.044;2023-05-10T04:08:25;6.67;;;6.07;;
15567;SDS011;7885;42.596;23.044;2023-05-10T04:10:52;6.33;;;5.63;;
15567;SDS011;7885;42.596;23.044;2023-05-10T04:13:19;6.03;;;5.53;;
15567;SDS011;7885;42.596;23.044;2023-05-10T04:15:46;5.60;;;5.10;;
15567;SDS011;7885;42.596;23.044;2023-05-10T04:18:14;6.50;;;5.80;;
15567;SDS011;7885;42.596;23.044;2023-05-10T04:20:42;6.10;;;5.60;;
15567;SDS011;7885;42.596;23.044;2023-05-10T04:23:08;6.40;;;5.90;;
15567;SDS011;7885;42.596;23.044;2023-05-10T04:25:35;6.80;;;6.20;;
15567;SDS011;7885;42.596;23.044;2023-05-10T04:28:02;7.03;;;6.33;;
15567;SDS011;7885;42.596;23.044;2023-05-10T04:30:29;6.93;;;6.33;;
15567;SDS011;7885;42.596;23.044;2023-05-10T04:32:56;6.90;;;6.30;;
15567;SDS011;7885;42.596;23.044;2023-05-10T04:35:24;7.50;;;6.90;;
15567;SDS011;7885;42.596;23.044;2023-05-10T04:37:51;7.37;;;6.67;;
15567;SDS011;7885;42.596;23.044;2023-05-10T04:40:17;6.40;;;5.90;;
15567;SDS011;7885;42.596;23.044;2023-05-10T04:42:44;6.83;;;6.23;;
15567;SDS011;7885;42.596;23.044;2023-05-10T04:45:11;7.73;;;7.13;;
15567;SDS011;7885;42.596;23.044;2023-05-10T04:47:39;7.00;;;6.50;;
15567;SDS011;7885;42.596;23.044;2023-05-10T04:50:06;7.30;;;6.70;;
15567;SDS011;7885;42.596;23.044;2023-05-10T04:52:35;6.47;;;5.87;;
15567;SDS011;7885;42.596;23.044;2023-05-10T04:55:02;6.27;;;5.77;;
15567;SDS011;7885;42.596;23.044;2023-05-10T04:57:29;7.47;;;6.87;;
15567;SDS011;7885;42.596;23.044;2023-05-10T04:59:55;7.60;;;7.00;;
15567;SDS011;7885;42.596;23.044;2023-05-10T05:02:22;7.63;;;7.03;;
15567;SDS011;7885;42.596;23.044;2023-05-10T05:04:49;7.47;;;6.87;;
15567;SDS011;7885;42.596;23.044;2023-05-10T05:07:16;7.67;;;6.97;;
15567;SDS011;7885;42.596;23.044;2023-05-10T05:09:44;9.27;;;6.70;;
15567;SDS011;7885;42.596;23.044;2023-05-10T05:12:10;6.77;;;6.17;;
15567;SDS011;7885;42.596;23.044;2023-05-10T05:14:39;6.40;;;5.90;;
15567;SDS011;7885;42.596;23.044;2023-05-10T05:17:06;6.63;;;6.07;;
15567;SDS011;7885;42.596;23.044;2023-05-10T05:19:33;7.83;;;7.13;;
15567;SDS011;7885;42.596;23.044;2023-05-10T05:22:00;8.77;;;7.93;;
15567;SDS011;7885;42.596;23.044;2023-05-10T05:24:27;7.23;;;6.63;;
15567;SDS011;7885;42.596;23.044;2023-05-10T05:26:55;6.80;;;6.30;;
15567;SDS011;7885;42.596;23.044;2023-05-10T05:29:22;7.87;;;7.03;;
15567;SDS011;7885;42.596;23.044;2023-05-10T05:31:48;7.53;;;6.83;;
15567;SDS011;7885;42.596;23.044;2023-05-10T05:34:15;7.13;;;6.53;;
15567;SDS011;7885;42.596;23.044;2023-05-10T05:36:42;7.00;;;6.40;;
15567;SDS011;7885;42.596;23.044;2023-05-10T05:39:08;7.97;;;6.43;;
15567;SDS011;7885;42.596;23.044;2023-05-10T05:41:35;8.23;;;6.40;;
15567;SDS011;7885;42.596;23.044;2023-05-10T05:44:03;7.47;;;6.80;;
15567;SDS011;7885;42.596;23.044;2023-05-10T05:46:30;7.00;;;6.40;;
15567;SDS011;7885;42.596;23.044;2023-05-10T05:48:57;6.67;;;6.07;;
15567;SDS011;7885;42.596;23.044;2023-05-10T05:51:23;6.43;;;5.83;;
15567;SDS011;7885;42.596;23.044;2023-05-10T05:53:50;7.50;;;6.80;;
15567;SDS011;7885;42.596;23.044;2023-05-10T05:56:17;7.63;;;7.00;;
15567;SDS011;7885;42.596;23.044;2023-05-10T06:02:11;6.90;;;6.30;;
15567;SDS011;7885;42.596;23.044;2023-05-10T06:04:38;7.77;;;6.97;;
15567;SDS011;7885;42.596;23.044;2023-05-10T06:07:05;8.00;;;7.20;;
15567;SDS011;7885;42.596;23.044;2023-05-10T06:09:31;7.60;;;6.90;;
15567;SDS011;7885;42.596;23.044;2023-05-10T06:11:58;7.53;;;6.77;;
15567;SDS011;7885;42.596;23.044;2023-05-10T06:14:25;8.20;;;7.40;;
15567;SDS011;7885;42.596;23.044;2023-05-10T06:16:52;7.50;;;6.90;;
15567;SDS011;7885;42.596;23.044;2023-05-10T06:19:20;7.60;;;6.90;;
15567;SDS011;7885;42.596;23.044;2023-05-10T06:25:08;6.80;;;5.77;;
15567;SDS011;7885;42.596;23.044;2023-05-10T06:27:36;7.93;;;6.20;;
15567;SDS011;7885;42.596;23.044;2023-05-10T06:30:03;9.90;;;7.30;;
15567;SDS011;7885;42.596;23.044;2023-05-10T06:32:30;9.33;;;6.10;;
15567;SDS011;7885;42.596;23.044;2023-05-10T06:34:58;10.07;;;5.63;;
15567;SDS011;7885;42.596;23.044;2023-05-10T06:37:25;12.70;;;6.03;;
15567;SDS011;7885;42.596;23.044;2023-05-10T06:39:52;16.07;;;6.97;;
15567;SDS011;7885;42.596;23.044;2023-05-10T06:42:18;18.87;;;7.60;;
15567;SDS011;7885;42.596;23.044;2023-05-10T06:44:45;24.87;;;8.07;;
15567;SDS011;7885;42.596;23.044;2023-05-10T06:47:12;18.00;;;6.73;;
15567;SDS011;7885;42.596;23.044;2023-05-10T06:49:38;17.83;;;7.23;;
15567;SDS011;7885;42.596;23.044;2023-05-10T06:55:47;12.97;;;8.93;;
15567;SDS011;7885;42.596;23.044;2023-05-10T06:58:15;8.00;;;7.20;;
15567;SDS011;7885;42.596;23.044;2023-05-10T07:00:42;7.17;;;6.23;;
15567;SDS011;7885;42.596;23.044;2023-05-10T07:03:10;9.17;;;7.13;;
15567;SDS011;7885;42.596;23.044;2023-05-10T07:05:37;15.27;;;10.33;;
15567;SDS011;7885;42.596;23.044;2023-05-10T07:08:03;12.80;;;11.50;;
15567;SDS011;7885;42.596;23.044;2023-05-10T07:10:30;8.60;;;7.57;;
15567;SDS011;7885;42.596;23.044;2023-05-10T07:12:58;9.23;;;6.67;;
15567;SDS011;7885;42.596;23.044;2023-05-10T07:15:25;8.40;;;7.00;;
15567;SDS011;7885;42.596;23.044;2023-05-10T07:17:52;9.37;;;8.00;;
15567;SDS011;7885;42.596;23.044;2023-05-10T07:20:18;9.27;;;8.37;;
15567;SDS011;7885;42.596;23.044;2023-05-10T07:22:45;7.87;;;7.17;;
15567;SDS011;7885;42.596;23.044;2023-05-10T07:25:12;8.40;;;7.67;;
15567;SDS011;7885;42.596;23.044;2023-05-10T07:27:39;9.27;;;8.27;;
15567;SDS011;7885;42.596;23.044;2023-05-10T07:30:07;8.63;;;7.83;;
15567;SDS011;7885;42.596;23.044;2023-05-10T07:32:35;9.63;;;7.47;;
15567;SDS011;7885;42.596;23.044;2023-05-10T07:35:01;10.27;;;9.37;;
15567;SDS011;7885;42.596;23.044;2023-05-10T07:37:28;7.93;;;6.60;;
15567;SDS011;7885;42.596;23.044;2023-05-10T07:39:55;7.00;;;6.03;;
15567;SDS011;7885;42.596;23.044;2023-05-10T07:42:21;7.63;;;6.23;;
15567;SDS011;7885;42.596;23.044;2023-05-10T07:44:48;8.43;;;6.70;;
15567;SDS011;7885;42.596;23.044;2023-05-10T07:47:16;7.73;;;6.80;;
15567;SDS011;7885;42.596;23.044;2023-05-10T07:49:43;8.00;;;7.17;;
15567;SDS011;7885;42.596;23.044;2023-05-10T07:52:10;8.60;;;7.70;;
15567;SDS011;7885;42.596;23.044;2023-05-10T07:54:37;10.13;;;7.47;;
15567;SDS011;7885;42.596;23.044;2023-05-10T07:57:04;9.03;;;7.10;;
15567;SDS011;7885;42.596;23.044;2023-05-10T07:59:31;10.27;;;7.10;;
15567;SDS011;7885;42.596;23.044;2023-05-10T08:01:58;11.60;;;7.43;;
15567;SDS011;7885;42.596;23.044;2023-05-10T08:04:27;13.20;;;8.40;;
15567;SDS011;7885;42.596;23.044;2023-05-10T08:06:53;12.93;;;9.17;;
15567;SDS011;7885;42.596;23.044;2023-05-10T08:09:20;18.23;;;10.30;;
15567;SDS011;7885;42.596;23.044;2023-05-10T08:11:48;14.97;;;8.80;;
15567;SDS011;7885;42.596;23.044;2023-05-10T08:14:15;13.60;;;9.33;;
15567;SDS011;7885;42.596;23.044;2023-05-10T08:16:42;12.13;;;8.60;;
15567;SDS011;7885;42.596;23.044;2023-05-10T08:19:09;12.93;;;9.10;;
15567;SDS011;7885;42.596;23.044;2023-05-10T08:21:37;14.00;;;9.13;;
15567;SDS011;7885;42.596;23.044;2023-05-10T08:24:05;16.83;;;9.93;;
15567;SDS011;7885;42.596;23.044;2023-05-10T08:26:33;16.37;;;10.80;;
15567;SDS011;7885;42.596;23.044;2023-05-10T08:28:59;13.97;;;9.60;;
15567;SDS011;7885;42.596;23.044;2023-05-10T08:31:26;16.70;;;8.87;;
15567;SDS011;7885;42.596;23.044;2023-05-10T08:33:53;12.03;;;8.57;;
15567;SDS011;7885;42.596;23.044;2023-05-10T08:36:20;12.53;;;7.73;;
15567;SDS011;7885;42.596;23.044;2023-05-10T08:38:50;13.80;;;8.20;;
15567;SDS011;7885;42.596;23.044;2023-05-10T08:41:18;14.43;;;10.40;;
15567;SDS011;7885;42.596;23.044;2023-05-10T08:43:46;12.80;;;10.00;;
15567;SDS011;7885;42.596;23.044;2023-05-10T08:46:14;13.83;;;11.30;;
15567;SDS011;7885;42.596;23.044;2023-05-10T08:48:43;11.50;;;10.43;;
15567;SDS011;7885;42.596;23.044;2023-05-10T08:51:11;10.50;;;9.30;;
15567;SDS011;7885;42.596;23.044;2023-05-10T08:53:41;11.50;;;10.37;;
15567;SDS011;7885;42.596;23.044;2023-05-10T08:56:09;10.40;;;9.40;;
15567;SDS011;7885;42.596;23.044;2023-05-10T08:58:36;9.90;;;8.80;;
15567;SDS011;7885;42.596;23.044;2023-05-10T09:01:03;10.33;;;9.30;;
15567;SDS011;7885;42.596;23.044;2023-05-10T09:03:31;13.23;;;9.67;;
15567;SDS011;7885;42.596;23.044;2023-05-10T09:05:58;11.87;;;9.77;;
15567;SDS011;7885;42.596;23.044;2023-05-10T09:08:25;9.60;;;8.03;;
15567;SDS011;7885;42.596;23.044;2023-05-10T09:10:52;11.53;;;9.17;;
15567;SDS011;7885;42.596;23.044;2023-05-10T09:13:20;9.77;;;8.57;;
15567;SDS011;7885;42.596;23.044;2023-05-10T09:15:48;11.83;;;10.23;;
15567;SDS011;7885;42.596;23.044;2023-05-10T09:18:16;11.47;;;10.37;;
15567;SDS011;7885;42.596;23.044;2023-05-10T09:20:42;12.87;;;10.77;;
15567;SDS011;7885;42.596;23.044;2023-05-10T09:23:09;13.97;;;10.97;;
15567;SDS011;7885;42.596;23.044;2023-05-10T09:25:36;8.87;;;7.80;;
15567;SDS011;7885;42.596;23.044;2023-05-10T09:28:05;10.47;;;9.57;;
15567;SDS011;7885;42.596;23.044;2023-05-10T09:30:34;9.00;;;8.27;;
15567;SDS011;7885;42.596;23.044;2023-05-10T09:33:01;9.73;;;8.93;;
15567;SDS011;7885;42.596;23.044;2023-05-10T09:35:28;10.07;;;9.03;;
15567;SDS011;7885;42.596;23.044;2023-05-10T09:37:57;8.87;;;7.97;;
15567;SDS011;7885;42.596;23.044;2023-05-10T09:40:26;9.83;;;7.70;;
15567;SDS011;7885;42.596;23.044;2023-05-10T09:42:56;7.93;;;7.13;;
15567;SDS011;7885;42.596;23.044;2023-05-10T09:45:25;9.03;;;8.23;;
15567;SDS011;7885;42.596;23.044;2023-05-10T09:47:53;10.57;;;9.27;;
15567;SDS011;7885;42.596;23.044;2023-05-10T09:50:21;10.03;;;8.97;;
15567;SDS011;7885;42.596;23.044;2023-05-10T09:52:49;11.67;;;10.47;;
15567;SDS011;7885;42.596;23.044;2023-05-10T09:55:17;13.73;;;10.10;;
15567;SDS011;7885;42.596;23.044;2023-05-10T09:57:46;11.87;;;9.50;;
15567;SDS011;7885;42.596;23.044;2023-05-10T10:00:16;11.93;;;10.77;;
15567;SDS011;7885;42.596;23.044;2023-05-10T10:02:45;12.57;;;9.90;;
15567;SDS011;7885;42.596;23.044;2023-05-10T10:05:14;11.77;;;10.63;;
15567;SDS011;7885;42.596;23.044;2023-05-10T10:07:41;14.67;;;11.27;;
15567;SDS011;7885;42.596;23.044;2023-05-10T10:10:08;11.97;;;9.70;;
15567;SDS011;7885;42.596;23.044;2023-05-10T10:12:38;11.77;;;9.67;;
15567;SDS011;7885;42.596;23.044;2023-05-10T10:15:07;10.70;;;8.70;;
15567;SDS011;7885;42.596;23.044;2023-05-10T10:17:35;12.10;;;9.37;;
15567;SDS011;7885;42.596;23.044;2023-05-10T10:20:04;12.40;;;10.47;;
15567;SDS011;7885;42.596;23.044;2023-05-10T10:22:33;9.20;;;8.30;;
15567;SDS011;7885;42.596;23.044;2023-05-10T10:25:00;11.27;;;9.23;;
15567;SDS011;7885;42.596;23.044;2023-05-10T10:27:28;9.00;;;8.10;;
15567;SDS011;7885;42.596;23.044;2023-05-10T10:30:06;8.20;;;7.30;;
15567;SDS011;7885;42.596;23.044;2023-05-10T10:32:46;10.33;;;9.33;;
15567;SDS011;7885;42.596;23.044;2023-05-10T10:35:28;9.33;;;8.33;;
15567;SDS011;7885;42.596;23.044;2023-05-10T10:37:57;9.17;;;8.37;;
15567;SDS011;7885;42.596;23.044;2023-05-10T10:40:25;10.93;;;9.90;;
15567;SDS011;7885;42.596;23.044;2023-05-10T10:42:53;12.00;;;10.80;;
15567;SDS011;7885;42.596;23.044;2023-05-10T10:45:20;10.97;;;9.93;;
15567;SDS011;7885;42.596;23.044;2023-05-10T10:47:48;10.73;;;9.70;;
15567;SDS011;7885;42.596;23.044;2023-05-10T10:50:16;16.50;;;14.80;;
15567;SDS011;7885;42.596;23.044;2023-05-10T10:52:43;11.93;;;10.70;;
15567;SDS011;7885;42.596;23.044;2023-05-10T10:55:13;10.00;;;9.00;;
15567;SDS011;7885;42.596;23.044;2023-05-10T10:57:43;12.53;;;11.33;;
15567;SDS011;7885;42.596;23.044;2023-05-10T11:00:22;10.67;;;9.57;;
15567;SDS011;7885;42.596;23.044;2023-05-10T11:02:53;11.37;;;9.43;;
15567;SDS011;7885;42.596;23.044;2023-05-10T11:08:10;17.30;;;15.53;;
15567;SDS011;7885;42.596;23.044;2023-05-10T11:10:52;14.87;;;13.47;;
15567;SDS011;7885;42.596;23.044;2023-05-10T11:13:32;11.97;;;10.73;;
15567;SDS011;7885;42.596;23.044;2023-05-10T11:16:09;15.33;;;13.73;;
15567;SDS011;7885;42.596;23.044;2023-05-10T11:18:40;11.67;;;10.47;;
15567;SDS011;7885;42.596;23.044;2023-05-10T11:21:15;12.93;;;11.63;;
15567;SDS011;7885;42.596;23.044;2023-05-10T11:23:48;11.60;;;10.40;;
15567;SDS011;7885;42.596;23.044;2023-05-10T11:26:17;14.40;;;12.47;;
15567;SDS011;7885;42.596;23.044;2023-05-10T11:28:48;11.40;;;10.20;;
15567;SDS011;7885;42.596;23.044;2023-05-10T11:31:15;12.63;;;11.27;;
15567;SDS011;7885;42.596;23.044;2023-05-10T11:33:42;11.03;;;9.87;;
15567;SDS011;7885;42.596;23.044;2023-05-10T11:36:10;12.17;;;10.30;;
15567;SDS011;7885;42.596;23.044;2023-05-10T11:38:37;13.60;;;12.27;;
15567;SDS011;7885;42.596;23.044;2023-05-10T11:41:04;12.43;;;11.03;;
15567;SDS011;7885;42.596;23.044;2023-05-10T11:43:32;12.10;;;10.90;;
15567;SDS011;7885;42.596;23.044;2023-05-10T11:45:59;11.47;;;9.47;;
15567;SDS011;7885;42.596;23.044;2023-05-10T11:48:26;12.87;;;11.43;;
15567;SDS011;7885;42.596;23.044;2023-05-10T11:50:53;14.43;;;12.93;;
15567;SDS011;7885;42.596;23.044;2023-05-10T11:53:22;11.60;;;10.50;;
15567;SDS011;7885;42.596;23.044;2023-05-10T11:55:48;13.73;;;12.30;;
15567;SDS011;7885;42.596;23.044;2023-05-10T11:58:15;13.90;;;12.60;;
15567;SDS011;7885;42.596;23.044;2023-05-10T12:00:43;13.60;;;12.20;;
15567;SDS011;7885;42.596;23.044;2023-05-10T12:03:10;11.90;;;10.70;;
15567;SDS011;7885;42.596;23.044;2023-05-10T12:05:37;10.53;;;9.53;;
15567;SDS011;7885;42.596;23.044;2023-05-10T12:08:12;18.23;;;14.20;;
15567;SDS011;7885;42.596;23.044;2023-05-10T12:10:40;13.60;;;12.27;;
15567;SDS011;7885;42.596;23.044;2023-05-10T12:13:10;12.37;;;11.07;;
15567;SDS011;7885;42.596;23.044;2023-05-10T12:15:38;14.10;;;12.70;;
15567;SDS011;7885;42.596;23.044;2023-05-10T12:18:06;12.73;;;11.47;;
15567;SDS011;7885;42.596;23.044;2023-05-10T12:20:35;14.00;;;9.77;;
15567;SDS011;7885;42.596;23.044;2023-05-10T12:23:02;11.53;;;10.43;;
15567;SDS011;7885;42.596;23.044;2023-05-10T12:25:31;12.00;;;10.90;;
15567;SDS011;7885;42.596;23.044;2023-05-10T12:27:59;12.03;;;10.93;;
15567;SDS011;7885;42.596;23.044;2023-05-10T12:30:29;18.47;;;15.57;;
15567;SDS011;7885;42.596;23.044;2023-05-10T12:32:59;24.53;;;22.03;;
15567;SDS011;7885;42.596;23.044;2023-05-10T12:35:31;11.77;;;10.13;;
15567;SDS011;7885;42.596;23.044;2023-05-10T12:37:57;12.43;;;10.37;;
15567;SDS011;7885;42.596;23.044;2023-05-10T12:40:24;11.77;;;10.67;;
15567;SDS011;7885;42.596;23.044;2023-05-10T12:42:51;13.73;;;12.43;;
15567;SDS011;7885;42.596;23.044;2023-05-10T12:45:18;11.27;;;9.67;;
15567;SDS011;7885;42.596;23.044;2023-05-10T12:47:45;11.80;;;10.60;;
15567;SDS011;7885;42.596;23.044;2023-05-10T12:50:11;11.90;;;10.70;;
15567;SDS011;7885;42.596;23.044;2023-05-10T12:52:39;13.37;;;12.07;;
15567;SDS011;7885;42.596;23.044;2023-05-10T12:55:06;13.67;;;12.23;;
15567;SDS011;7885;42.596;23.044;2023-05-10T12:57:34;15.00;;;11.87;;
15567;SDS011;7885;42.596;23.044;2023-05-10T13:00:00;10.67;;;9.73;;
15567;SDS011;7885;42.596;23.044;2023-05-10T13:02:27;11.40;;;10.20;;
15567;SDS011;7885;42.596;23.044;2023-05-10T13:04:54;13.27;;;12.03;;
15567;SDS011;7885;42.596;23.044;2023-05-10T13:07:21;12.63;;;10.33;;
15567;SDS011;7885;42.596;23.044;2023-05-10T13:09:49;10.90;;;9.80;;
15567;SDS011;7885;42.596;23.044;2023-05-10T13:12:16;10.80;;;9.07;;
15567;SDS011;7885;42.596;23.044;2023-05-10T13:14:42;9.30;;;8.40;;
15567;SDS011;7885;42.596;23.044;2023-05-10T13:17:09;9.20;;;8.40;;
15567;SDS011;7885;42.596;23.044;2023-05-10T13:19:36;9.30;;;8.53;;
15567;SDS011;7885;42.596;23.044;2023-05-10T13:22:02;10.63;;;9.57;;
15567;SDS011;7885;42.596;23.044;2023-05-10T13:24:29;11.00;;;9.90;;
15567;SDS011;7885;42.596;23.044;2023-05-10T13:26:57;10.57;;;9.57;;
15567;SDS011;7885;42.596;23.044;2023-05-10T13:29:24;10.37;;;9.37;;
15567;SDS011;7885;42.596;23.044;2023-05-10T13:31:51;10.67;;;9.67;;
15567;SDS011;7885;42.596;23.044;2023-05-10T13:34:17;11.60;;;9.40;;
15567;SDS011;7885;42.596;23.044;2023-05-10T13:36:46;11.10;;;10.00;;
15567;SDS011;7885;42.596;23.044;2023-05-10T13:39:13;12.43;;;11.13;;
15567;SDS011;7885;42.596;23.044;2023-05-10T13:41:40;11.27;;;10.20;;
15567;SDS011;7885;42.596;23.044;2023-05-10T13:44:13;11.57;;;10.57;;
15567;SDS011;7885;42.596;23.044;2023-05-10T13:46:40;9.60;;;8.70;;
15567;SDS011;7885;42.596;23.044;2023-05-10T13:49:08;10.63;;;9.73;;
15567;SDS011;7885;42.596;23.044;2023-05-10T13:51:34;12.63;;;11.40;;
15567;SDS011;7885;42.596;23.044;2023-05-10T13:54:01;11.03;;;9.93;;
15567;SDS011;7885;42.596;23.044;2023-05-10T13:56:28;13.90;;;11.77;;
15567;SDS011;7885;42.596;23.044;2023-05-10T13:58:55;11.63;;;10.53;;
15567;SDS011;7885;42.596;23.044;2023-05-10T14:01:24;11.17;;;10.17;;
15567;SDS011;7885;42.596;23.044;2023-05-10T14:03:51;11.70;;;10.53;;
15567;SDS011;7885;42.596;23.044;2023-05-10T14:06:18;12.50;;;11.30;;
15567;SDS011;7885;42.596;23.044;2023-05-10T14:08:44;11.20;;;10.10;;
15567;SDS011;7885;42.596;23.044;2023-05-10T14:11:11;11.87;;;10.10;;
15567;SDS011;7885;42.596;23.044;2023-05-10T14:13:38;10.03;;;9.03;;
15567;SDS011;7885;42.596;23.044;2023-05-10T14:16:05;13.03;;;11.80;;
15567;SDS011;7885;42.596;23.044;2023-05-10T14:21:56;12.57;;;10.70;;
15567;SDS011;7885;42.596;23.044;2023-05-10T14:24:22;10.00;;;9.10;;
15567;SDS011;7885;42.596;23.044;2023-05-10T14:26:49;11.83;;;10.47;;
15567;SDS011;7885;42.596;23.044;2023-05-10T14:29:18;11.60;;;10.50;;
15567;SDS011;7885;42.596;23.044;2023-05-10T14:31:45;11.17;;;10.00;;
15567;SDS011;7885;42.596;23.044;2023-05-10T14:34:12;11.43;;;10.33;;
15567;SDS011;7885;42.596;23.044;2023-05-10T14:36:39;11.87;;;10.60;;
15567;SDS011;7885;42.596;23.044;2023-05-10T14:39:07;13.07;;;11.60;;
15567;SDS011;7885;42.596;23.044;2023-05-10T14:41:35;12.00;;;10.90;;
15567;SDS011;7885;42.596;23.044;2023-05-10T14:44:02;12.10;;;10.77;;
15567;SDS011;7885;42.596;23.044;2023-05-10T14:46:29;11.13;;;10.13;;
15567;SDS011;7885;42.596;23.044;2023-05-10T14:48:56;13.80;;;11.83;;
15567;SDS011;7885;42.596;23.044;2023-05-10T14:51:22;13.53;;;12.33;;
15567;SDS011;7885;42.596;23.044;2023-05-10T14:53:49;13.03;;;11.50;;
15567;SDS011;7885;42.596;23.044;2023-05-10T14:56:17;13.70;;;12.40;;
15567;SDS011;7885;42.596;23.044;2023-05-10T14:58:46;14.40;;;13.00;;
15567;SDS011;7885;42.596;23.044;2023-05-10T15:01:13;13.23;;;11.90;;
15567;SDS011;7885;42.596;23.044;2023-05-10T15:03:39;12.03;;;10.80;;
15567;SDS011;7885;42.596;23.044;2023-05-10T15:06:07;11.30;;;10.30;;
15567;SDS011;7885;42.596;23.044;2023-05-10T15:08:34;10.87;;;9.87;;
15567;SDS011;7885;42.596;23.044;2023-05-10T15:11:01;14.63;;;13.00;;